Airfield :
LOGIN :

Register | Disclaimer

   EN    FR    IT 

 










Legend :    VFR   Marginal VFR   IFR   Intensive IFR   Very Intensive IFR
Visi :
Ceiling :
>= 8 km
>= 3000ft
5 to 8 km
1000 to 3000 ft
1500m to 5 km
500 to 1000 ft
800 to 1500m
200 to 500 ft
< 800m
< 200 ft
Symbols :   Thunderstorms  Fog  Heavy snow  Heavy precipitations  Wind > 20 kt
SIGMETs :     Misc.  Thunderstorms  Icing  Turbulence  Mountain Waves  Volcanic Ashes






- Airport Elevation : 327 ft
- IATA code : BHX


EGBB - Birmingham

CURRENT METAR :
  • 270550Z 17006KT 9999 FEW009 07/06 Q0997

EXPIRED METARs :
  • 270520Z 18006KT 9999 FEW045 07/06 Q0998
  • 270450Z 17006KT CAVOK 07/06 Q0998
  • 270420Z 18005KT CAVOK 07/06 Q0998
  • 270350Z 18005KT 150V210 9999 BKN045 06/05 Q0998
  • 270320Z 19005KT 9999 BKN046 06/05 Q0999

TAF TAF EGBB
Valid from the 27 at 06:00 until the 28 at 06:00 UTC


270453Z 2706/2806 17012KT 9999 FEW030
BECMG 2707/2710 BKN012
TEMPO 2707/2714 4000 RA BKN005
PROB30
TEMPO 2710/2714 20015G25KT
BECMG 2713/2715 25010KT SCT025
PROB30
TEMPO 2714/2717 26015G25KT
PROB30
TEMPO 2714/2720 7000 SHRA
ATIS : +44 121 780 0910



MET'MAP, your aeronautical weather chart ! - Copyright ORBIFLY December 2007 - Disclaimer

ORBIFLY MET'MAP TEAM :

Programming & Development : Alexandra Zaïnal
Concept & original design : Baudouin d'Aumeries
Assistance for programming : Marc-Olivier Méhu
Technical & hardware support : Manuel Goepfert

Contact : metmap@orbifly.com




SOURCES & CREDITS :

   NOAA